Time;durP1;ratioP1;P1;durP2;ratioP2;P2;SDS_P1;SDS_P2;PMS_P1;PMS_P2;Temp;Humidity;BMP_temperature;BMP_pressure;BME280_temperature;BME280_humidity;BME280_pressure;Samples;Min_cycle;Max_cycle;Signal;HPM_P1;HPM_P2
2021/12/04 00:01:08;;;;;;;21.17;10.38;;;;;;;-142.18;100.00;63825.25;5094969;28;20450;-74
2021/12/04 00:03:35;;;;;;;15.40;9.97;;;;;;;-142.18;100.00;63825.25;5096008;28;20056;-74
2021/12/04 00:06:06;;;;;;;16.23;10.85;;;;;;;-142.18;100.00;63825.25;5095230;28;20061;-74
2021/12/04 00:08:37;;;;;;;15.65;9.68;;;;;;;-142.18;100.00;63825.25;5077899;28;20060;-74
2021/12/04 00:11:04;;;;;;;16.90;11.32;;;;;;;-142.18;100.00;63825.25;5077307;28;20060;-74
2021/12/04 00:13:31;;;;;;;15.63;9.10;;;;;;;-142.18;100.00;63825.25;5095004;28;20095;-74
2021/12/04 00:15:57;;;;;;;18.27;10.40;;;;;;;-142.18;100.00;63825.25;5076979;28;20125;-74
2021/12/04 00:18:27;;;;;;;18.77;10.65;;;;;;;-142.18;100.00;63825.25;5093890;28;20056;-74
2021/12/04 00:20:55;;;;;;;15.68;9.80;;;;;;;-142.18;100.00;63825.25;5093928;28;20079;-74
2021/12/04 00:23:23;;;;;;;15.75;10.20;;;;;;;-142.18;100.00;63825.25;5093694;28;20123;-74
2021/12/04 00:25:50;;;;;;;17.55;10.45;;;;;;;-142.18;100.00;63825.25;5076273;28;20064;-74
2021/12/04 00:28:18;;;;;;;24.65;13.45;;;;;;;-142.18;100.00;63825.25;5076318;28;20110;-74
2021/12/04 00:30:46;;;;;;;16.98;10.70;;;;;;;-142.18;100.00;63825.25;5094127;28;20076;-74
2021/12/04 00:33:18;;;;;;;16.17;9.93;;;;;;;-142.18;100.00;63825.25;5094051;28;20405;-74
2021/12/04 00:35:53;;;;;;;14.98;10.32;;;;;;;-142.18;100.00;63825.25;5094791;28;20114;-74
2021/12/04 00:49:18;;;;;;;14.10;9.32;;;;;;;-142.18;100.00;63825.25;5070385;28;20060;-73
2021/12/04 00:51:53;;;;;;;15.45;9.23;;;;;;;-142.18;100.00;63825.25;5077104;28;20060;-74
2021/12/04 00:54:40;;;;;;;16.20;9.48;;;;;;;-142.18;100.00;63825.25;5093867;28;20758;-74
2021/12/04 00:57:13;;;;;;;15.27;8.98;;;;;;;-142.18;100.00;63825.25;5094098;28;20060;-73
2021/12/04 00:59:40;;;;;;;14.23;9.68;;;;;;;-142.18;100.00;63825.25;5095225;28;20102;-74
2021/12/04 01:02:07;;;;;;;16.35;8.32;;;;;;;-142.18;100.00;63825.25;5094673;28;20157;-74
2021/12/04 01:04:35;;;;;;;16.08;9.15;;;;;;;-142.18;100.00;63825.25;5095176;28;20060;-73
2021/12/04 01:07:02;;;;;;;15.38;9.27;;;;;;;-142.18;100.00;63825.25;5094933;28;20091;-73
2021/12/04 01:09:29;;;;;;;12.95;9.38;;;;;;;-142.18;100.00;63825.25;5094528;28;20086;-74
2021/12/04 01:11:56;;;;;;;13.45;8.50;;;;;;;-142.18;100.00;63825.25;5076809;28;20061;-74
2021/12/04 01:14:51;;;;;;;16.88;10.10;;;;;;;-142.18;100.00;63825.25;5093755;28;20053;-74
2021/12/04 01:17:18;;;;;;;12.88;8.75;;;;;;;-142.18;100.00;63825.25;5094750;28;20107;-74
2021/12/04 01:19:46;;;;;;;15.77;9.70;;;;;;;-142.18;100.00;63825.25;5093787;28;20122;-74
2021/12/04 01:22:13;;;;;;;15.13;8.73;;;;;;;-142.18;100.00;63825.25;5093494;28;20100;-75
2021/12/04 01:24:41;;;;;;;17.67;9.18;;;;;;;-142.18;100.00;63825.25;5076106;28;20091;-74
2021/12/04 01:27:08;;;;;;;12.52;8.93;;;;;;;-142.18;100.00;63825.25;5091286;28;20156;-74
2021/12/04 01:29:36;;;;;;;15.68;9.25;;;;;;;-142.18;100.00;63825.25;5093337;28;20060;-74
2021/12/04 01:32:06;;;;;;;16.35;9.38;;;;;;;-142.18;100.00;63825.25;5076073;28;20138;-74
2021/12/04 01:34:34;;;;;;;18.27;9.63;;;;;;;-142.18;100.00;63825.25;5093612;28;20143;-74
2021/12/04 01:37:05;;;;;;;16.33;9.40;;;;;;;-142.18;100.00;63825.25;5093189;28;20060;-74
2021/12/04 01:39:32;;;;;;;16.20;10.07;;;;;;;-142.18;100.00;63825.25;5093799;28;20060;-73
2021/12/04 01:41:58;;;;;;;14.10;9.30;;;;;;;-142.18;100.00;63825.25;5092990;28;20118;-73
2021/12/04 01:44:26;;;;;;;17.17;10.40;;;;;;;-142.18;100.00;63825.25;5093639;28;20093;-73
2021/12/04 01:46:56;;;;;;;14.50;9.63;;;;;;;-142.18;100.00;63825.25;5075864;28;20068;-73
2021/12/04 01:49:24;;;;;;;14.15;8.75;;;;;;;-142.18;100.00;63825.25;5093191;28;20068;-74
2021/12/04 01:51:51;;;;;;;14.27;8.65;;;;;;;-142.18;100.00;63825.25;5093344;28;20056;-74
2021/12/04 01:54:18;;;;;;;14.77;9.43;;;;;;;-142.18;100.00;63825.25;5093474;28;20146;-74
2021/12/04 01:56:45;;;;;;;14.18;8.55;;;;;;;-142.18;100.00;63825.25;5093902;28;20155;-74
2021/12/04 01:59:13;;;;;;;16.80;9.45;;;;;;;-142.18;100.00;63825.25;5093539;28;20060;-73
2021/12/04 02:01:39;;;;;;;15.35;9.38;;;;;;;-142.18;100.00;63825.25;5092936;28;20060;-73
2021/12/04 02:04:07;;;;;;;14.07;9.10;;;;;;;-142.18;100.00;63825.25;5075423;28;20064;-74
2021/12/04 02:06:34;;;;;;;13.80;8.68;;;;;;;-142.18;100.00;63825.25;5074822;28;20152;-74
2021/12/04 02:09:02;;;;;;;13.45;8.98;;;;;;;-142.18;100.00;63825.25;5074738;28;20110;-74
2021/12/04 02:11:28;;;;;;;13.30;8.00;;;;;;;-142.18;100.00;63825.25;5092575;28;20060;-74
2021/12/04 02:13:56;;;;;;;16.05;10.15;;;;;;;-142.18;100.00;63825.25;5092668;28;20099;-74
2021/12/04 02:16:23;;;;;;;17.00;9.93;;;;;;;-142.18;100.00;63825.25;5075446;28;20096;-74
2021/12/04 02:18:51;;;;;;;14.40;8.93;;;;;;;-142.18;100.00;63825.25;5093311;28;20052;-73
2021/12/04 02:21:17;;;;;;;14.50;8.30;;;;;;;-142.18;100.00;63825.25;5093298;28;20056;-73
2021/12/04 02:23:44;;;;;;;12.85;8.40;;;;;;;-142.18;100.00;63825.25;5092709;28;20460;-73
2021/12/04 02:26:13;;;;;;;12.80;8.88;;;;;;;-142.18;100.00;63825.25;5074898;28;20072;-74
2021/12/04 02:28:45;;;;;;;14.10;9.32;;;;;;;-142.18;100.00;63825.25;5075897;28;20068;-73
2021/12/04 02:31:16;;;;;;;14.13;8.98;;;;;;;-142.18;100.00;63825.25;5092898;28;20060;-73
2021/12/04 02:33:44;;;;;;;14.85;9.25;;;;;;;-142.18;100.00;63825.25;5092836;28;20069;-73
2021/12/04 02:36:13;;;;;;;12.77;8.90;;;;;;;-142.18;100.00;63825.25;5074453;28;20048;-73
2021/12/04 02:38:41;;;;;;;12.23;7.95;;;;;;;-142.18;100.00;63825.25;5093242;28;20064;-73
2021/12/04 02:41:09;;;;;;;12.50;8.18;;;;;;;-142.18;100.00;63825.25;5074420;28;20114;-73
2021/12/04 02:43:37;;;;;;;11.15;8.20;;;;;;;-142.18;100.00;63825.25;5092743;28;20407;-73
2021/12/04 02:46:04;;;;;;;14.77;9.05;;;;;;;-142.18;100.00;63825.25;5074277;28;20053;-74
2021/12/04 02:48:33;;;;;;;13.45;8.30;;;;;;;-142.18;100.00;63825.25;5092322;28;20053;-74
2021/12/04 02:51:00;;;;;;;12.65;8.68;;;;;;;-142.18;100.00;63825.25;5074847;28;20094;-74
2021/12/04 02:53:27;;;;;;;17.13;9.60;;;;;;;-142.18;100.00;63825.25;5093507;28;20067;-73
2021/12/04 02:55:53;;;;;;;11.77;8.55;;;;;;;-142.18;100.00;63825.25;5074829;28;20075;-73
2021/12/04 02:58:21;;;;;;;13.55;9.32;;;;;;;-142.18;100.00;63825.25;5074918;28;20114;-73
2021/12/04 03:00:51;;;;;;;12.85;8.80;;;;;;;-142.18;100.00;63825.25;5092895;28;20061;-73
2021/12/04 03:03:19;;;;;;;12.95;8.20;;;;;;;-142.18;100.00;63825.25;5092362;28;20056;-73
2021/12/04 03:05:51;;;;;;;13.32;8.40;;;;;;;-142.18;100.00;63825.25;5074802;28;20090;-73
2021/12/04 03:08:23;;;;;;;13.98;9.05;;;;;;;-142.18;100.00;63825.25;5074819;28;20060;-74
2021/12/04 03:10:52;;;;;;;13.20;8.95;;;;;;;-142.18;100.00;63825.25;5094987;28;20381;-74
2021/12/04 03:13:21;;;;;;;13.00;8.85;;;;;;;-142.18;100.00;63825.25;5078282;28;20469;-73
2021/12/04 03:15:57;;;;;;;12.93;8.35;;;;;;;-142.18;100.00;63825.25;5058673;28;20187;-73
2021/12/04 03:18:26;;;;;;;13.02;8.88;;;;;;;-142.18;100.00;63825.25;5076245;28;20061;-73
2021/12/04 03:20:56;;;;;;;15.75;10.15;;;;;;;-142.18;100.00;63825.25;5076052;28;20071;-74
2021/12/04 03:23:31;;;;;;;13.93;9.30;;;;;;;-142.18;100.00;63825.25;5090099;28;20154;-74
2021/12/04 03:26:03;;;;;;;12.88;9.10;;;;;;;-142.18;100.00;63825.25;5095715;28;20096;-74
2021/12/04 03:28:31;;;;;;;12.85;9.20;;;;;;;-142.18;100.00;63825.25;5095271;28;20931;-74
2021/12/04 03:31:06;;;;;;;13.07;9.23;;;;;;;-142.18;100.00;63825.25;5095737;28;20063;-74
2021/12/04 03:41:53;;;;;;;14.90;9.68;;;;;;;-142.18;100.00;63825.25;5096697;28;20461;-73
2021/12/04 03:44:20;;;;;;;13.10;9.02;;;;;;;-142.18;100.00;63825.25;5078119;28;20760;-73
2021/12/04 03:46:48;;;;;;;15.77;9.70;;;;;;;-142.18;100.00;63825.25;5095803;28;20183;-74
2021/12/04 03:49:15;;;;;;;13.98;9.38;;;;;;;-142.18;100.00;63825.25;5095989;28;20057;-74
2021/12/04 03:51:45;;;;;;;15.38;10.13;;;;;;;-142.18;100.00;63825.25;5096084;28;20417;-74
2021/12/04 03:54:12;;;;;;;18.70;10.30;;;;;;;-142.18;100.00;63825.25;5096106;28;20056;-75
2021/12/04 03:56:40;;;;;;;14.75;9.73;;;;;;;-142.18;100.00;63825.25;5096385;28;20472;-75
2021/12/04 03:59:08;;;;;;;13.68;9.43;;;;;;;-142.18;100.00;63825.25;5096569;28;20992;-74
2021/12/04 04:01:34;;;;;;;14.13;10.10;;;;;;;-142.18;100.00;63825.25;5095962;28;20068;-74
2021/12/04 04:04:01;;;;;;;14.27;10.18;;;;;;;-142.18;100.00;63825.25;5095751;28;20072;-74
2021/12/04 04:06:29;;;;;;;12.63;9.20;;;;;;;-142.18;100.00;63825.25;5095126;28;20126;-72
2021/12/04 04:08:55;;;;;;;14.35;9.27;;;;;;;-142.18;100.00;63825.25;5095379;28;20425;-72
2021/12/04 04:11:23;;;;;;;14.35;9.82;;;;;;;-142.18;100.00;63825.25;5095843;28;20147;-72
2021/12/04 04:13:50;;;;;;;13.05;9.48;;;;;;;-142.18;100.00;63825.25;5076213;28;20225;-72
2021/12/04 04:16:17;;;;;;;16.85;10.05;;;;;;;-142.18;100.00;63825.25;5094329;28;20783;-73
2021/12/04 04:18:44;;;;;;;14.77;9.43;;;;;;;-142.18;100.00;63825.25;5076487;28;20063;-74
2021/12/04 04:21:12;;;;;;;15.00;10.35;;;;;;;-142.18;100.00;63825.25;5093563;28;20095;-73
2021/12/04 04:23:38;;;;;;;14.32;10.10;;;;;;;-142.18;100.00;63825.25;5076939;28;20061;-74
2021/12/04 04:26:06;;;;;;;14.93;9.50;;;;;;;-142.18;100.00;63825.25;5094326;28;20448;-74
2021/12/04 04:28:34;;;;;;;15.38;9.60;;;;;;;-142.18;100.00;63825.25;5095160;28;20160;-73
2021/12/04 04:31:02;;;;;;;14.10;9.48;;;;;;;-142.18;100.00;63825.25;5095173;28;20135;-73
2021/12/04 04:33:34;;;;;;;13.55;9.50;;;;;;;-142.18;100.00;63825.25;5095354;28;20465;-74
2021/12/04 04:39:16;;;;;;;16.88;10.95;;;;;;;-142.18;100.00;63825.25;5066018;28;20052;-73
2021/12/04 05:12:10;;;;;;;16.92;10.65;;;;;;;-142.18;100.00;63825.25;5094379;28;20880;-73
2021/12/04 05:14:41;;;;;;;19.90;12.75;;;;;;;-142.18;100.00;63825.25;5094827;28;20480;-72
2021/12/04 05:17:26;;;;;;;16.40;10.45;;;;;;;-142.18;100.00;63825.25;5094013;28;20151;-73
2021/12/04 05:19:57;;;;;;;20.67;12.60;;;;;;;-142.18;100.00;63825.25;5092360;28;20134;-74
2021/12/04 05:22:34;;;;;;;20.15;12.05;;;;;;;-142.18;100.00;63825.25;5094652;28;20859;-74
2021/12/04 05:25:02;;;;;;;18.05;11.48;;;;;;;-142.18;100.00;63825.25;5076477;28;20511;-74
2021/12/04 05:27:30;;;;;;;16.58;11.02;;;;;;;-142.18;100.00;63825.25;5093984;28;20114;-74
2021/12/04 05:29:57;;;;;;;19.35;12.55;;;;;;;-142.18;100.00;63825.25;5076358;28;20507;-74
2021/12/04 05:32:24;;;;;;;21.00;12.48;;;;;;;-142.18;100.00;63825.25;5093974;28;20064;-74
2021/12/04 05:34:51;;;;;;;19.65;12.02;;;;;;;-142.18;100.00;63825.25;5094019;28;20461;-65
2021/12/04 05:37:17;;;;;;;17.70;11.73;;;;;;;-142.18;100.00;63825.25;5093457;28;20118;-65
2021/12/04 05:39:44;;;;;;;20.63;12.35;;;;;;;-142.18;100.00;63825.25;5094239;28;20216;-65
2021/12/04 05:42:11;;;;;;;20.10;12.60;;;;;;;-142.18;100.00;63825.25;5093799;28;20057;-65
2021/12/04 05:44:39;;;;;;;20.77;13.18;;;;;;;-142.18;100.00;63825.25;5076122;28;20152;-65
2021/12/04 05:47:32;;;;;;;20.58;12.93;;;;;;;-142.18;100.00;63825.25;5094043;28;20107;-65
2021/12/04 05:50:15;;;;;;;20.08;12.48;;;;;;;-142.18;100.00;63825.25;5093684;28;20052;-66
2021/12/04 05:55:16;;;;;;;20.95;12.65;;;;;;;-142.18;100.00;63825.25;5094501;28;20594;-66
2021/12/04 05:57:45;;;;;;;20.25;12.52;;;;;;;-142.18;100.00;63825.25;5076561;28;20467;-66
2021/12/04 06:00:19;;;;;;;22.75;12.82;;;;;;;-142.18;100.00;63825.25;5076717;28;20142;-66
2021/12/04 06:02:47;;;;;;;23.48;13.20;;;;;;;-142.18;100.00;63825.25;5093193;28;20834;-66
2021/12/04 06:05:14;;;;;;;23.30;13.98;;;;;;;-142.18;100.00;63825.25;5093198;28;20206;-66
2021/12/04 06:07:41;;;;;;;23.67;14.15;;;;;;;-142.18;100.00;63825.25;5093259;28;20143;-66
2021/12/04 06:10:08;;;;;;;21.17;13.48;;;;;;;-142.18;100.00;63825.25;5093762;28;20064;-65
2021/12/04 06:12:35;;;;;;;22.65;13.57;;;;;;;-142.18;100.00;63825.25;5074523;28;20087;-66
2021/12/04 06:15:03;;;;;;;19.27;11.73;;;;;;;-142.18;100.00;63825.25;5092029;28;20144;-65
2021/12/04 06:17:30;;;;;;;20.83;12.57;;;;;;;-142.18;100.00;63825.25;5092568;28;20061;-65
2021/12/04 06:22:42;;;;;;;21.83;14.30;;;;;;;-142.18;100.00;63825.25;5092963;28;20480;-66
2021/12/04 06:25:13;;;;;;;21.02;12.93;;;;;;;-142.18;100.00;63825.25;5092364;28;20475;-66
2021/12/04 06:27:40;;;;;;;20.90;13.18;;;;;;;-142.18;100.00;63825.25;5092340;28;20080;-66
2021/12/04 06:30:10;;;;;;;21.92;13.13;;;;;;;-142.18;100.00;63825.25;5091276;28;20060;-66
2021/12/04 06:32:38;;;;;;;24.02;14.18;;;;;;;-142.18;100.00;63825.25;5091931;28;20110;-65
2021/12/04 06:35:07;;;;;;;26.48;14.93;;;;;;;-142.18;100.00;63825.25;5091893;28;20118;-65
2021/12/04 06:37:33;;;;;;;22.45;13.25;;;;;;;-142.18;100.00;63825.25;5090784;28;20052;-65
2021/12/04 06:40:03;;;;;;;26.63;15.00;;;;;;;-142.18;100.00;63825.25;5092209;28;20446;-65
2021/12/04 06:42:29;;;;;;;21.65;13.95;;;;;;;-142.18;100.00;63825.25;5092498;28;20067;-65
2021/12/04 06:45:04;;;;;;;21.67;13.95;;;;;;;-142.18;100.00;63825.25;5093829;28;21038;-65
2021/12/04 06:47:32;;;;;;;23.55;14.38;;;;;;;-142.18;100.00;63825.25;5095665;28;20462;-65
2021/12/04 06:50:08;;;;;;;26.13;14.45;;;;;;;-142.18;100.00;63825.25;5095737;28;20060;-65
2021/12/04 06:52:38;;;;;;;22.95;14.48;;;;;;;-142.18;100.00;63825.25;5094987;28;20061;-65
2021/12/04 06:55:06;;;;;;;23.30;14.25;;;;;;;-142.18;100.00;63825.25;5095188;28;20431;-65
2021/12/04 06:57:37;;;;;;;25.88;14.73;;;;;;;-142.18;100.00;63825.25;5095581;28;20070;-65
2021/12/04 07:00:06;;;;;;;25.20;13.68;;;;;;;-142.18;100.00;63825.25;5093351;28;20389;-65
2021/12/04 07:02:34;;;;;;;24.65;14.23;;;;;;;-142.18;100.00;63825.25;5093841;28;20366;-65
2021/12/04 07:05:01;;;;;;;23.90;13.40;;;;;;;-142.18;100.00;63825.25;5090853;28;20060;-65
2021/12/04 07:07:27;;;;;;;25.23;14.40;;;;;;;-142.18;100.00;63825.25;5093062;28;20060;-65
2021/12/04 07:09:54;;;;;;;26.33;14.88;;;;;;;-142.18;100.00;63825.25;5093588;28;20056;-65
2021/12/04 07:12:21;;;;;;;32.63;16.08;;;;;;;-142.18;100.00;63825.25;5093432;28;20155;-65
2021/12/04 07:14:48;;;;;;;24.40;13.38;;;;;;;-142.18;100.00;63825.25;5093585;28;20056;-66
2021/12/04 07:17:14;;;;;;;27.10;13.63;;;;;;;-142.18;100.00;63825.25;5093518;28;20062;-66
2021/12/04 07:19:41;;;;;;;25.65;13.90;;;;;;;-142.18;100.00;63825.25;5093634;28;20155;-66
2021/12/04 07:22:08;;;;;;;27.90;14.20;;;;;;;-142.18;100.00;63825.25;5093422;28;20060;-66
2021/12/04 07:24:35;;;;;;;37.20;19.40;;;;;;;-142.18;100.00;63825.25;5093046;28;20061;-65
2021/12/04 07:27:02;;;;;;;26.08;14.68;;;;;;;-142.18;100.00;63825.25;5093077;28;20163;-66
2021/12/04 07:29:32;;;;;;;28.15;15.52;;;;;;;-142.18;100.00;63825.25;5093649;28;20052;-65
2021/12/04 07:32:02;;;;;;;27.10;14.80;;;;;;;-142.18;100.00;63825.25;5093312;28;20483;-65
2021/12/04 07:34:29;;;;;;;27.23;15.75;;;;;;;-142.18;100.00;63825.25;5093916;28;20694;-66
2021/12/04 07:36:57;;;;;;;31.58;16.23;;;;;;;-142.18;100.00;63825.25;5075244;28;20088;-66
2021/12/04 07:39:23;;;;;;;29.52;16.23;;;;;;;-142.18;100.00;63825.25;5056104;28;20490;-66
2021/12/04 07:41:51;;;;;;;29.02;14.77;;;;;;;-142.18;100.00;63825.25;5074299;28;20561;-65
2021/12/04 07:44:17;;;;;;;28.25;15.48;;;;;;;-142.18;100.00;63825.25;5082381;28;20151;-65
2021/12/04 07:46:44;;;;;;;26.00;14.45;;;;;;;-142.18;100.00;63825.25;5074301;28;20442;-66
2021/12/04 07:49:11;;;;;;;33.22;16.60;;;;;;;-142.18;100.00;63825.25;5092146;28;20146;-65
2021/12/04 07:51:38;;;;;;;27.75;14.88;;;;;;;-142.18;100.00;63825.25;5093733;28;20139;-65
2021/12/04 07:54:05;;;;;;;27.17;14.63;;;;;;;-142.18;100.00;63825.25;5093525;28;20064;-65
2021/12/04 07:56:32;;;;;;;25.65;14.45;;;;;;;-142.18;100.00;63825.25;5094388;28;20062;-65
2021/12/04 07:58:59;;;;;;;26.33;15.27;;;;;;;-142.18;100.00;63825.25;5095302;28;20060;-65
2021/12/04 08:01:27;;;;;;;25.30;15.32;;;;;;;-142.18;100.00;63825.25;5077227;28;20052;-67
2021/12/04 08:03:53;;;;;;;28.17;15.43;;;;;;;-142.18;100.00;63825.25;5094410;28;20810;-65
2021/12/04 08:06:24;;;;;;;31.02;17.02;;;;;;;-142.18;100.00;63825.25;5095405;28;20052;-66
2021/12/04 08:08:53;;;;;;;26.55;14.65;;;;;;;-142.18;100.00;63825.25;5076739;28;20118;-65
2021/12/04 08:11:22;;;;;;;25.88;14.15;;;;;;;-142.18;100.00;63825.25;5094086;28;20056;-66
2021/12/04 08:13:49;;;;;;;28.05;15.77;;;;;;;-142.18;100.00;63825.25;5077355;28;20060;-65
2021/12/04 08:16:18;;;;;;;27.17;14.82;;;;;;;-142.18;100.00;63825.25;5094306;28;20152;-65
2021/12/04 08:18:46;;;;;;;24.70;14.80;;;;;;;-142.18;100.00;63825.25;5095709;28;20068;-65
2021/12/04 08:21:13;;;;;;;24.95;14.43;;;;;;;-142.18;100.00;63825.25;5077348;28;20462;-65
2021/12/04 08:23:39;;;;;;;33.33;18.58;;;;;;;-142.18;100.00;63825.25;5094395;28;20407;-65
2021/12/04 08:26:08;;;;;;;23.67;13.25;;;;;;;-142.18;100.00;63825.25;5095757;28;20457;-65
2021/12/04 08:28:35;;;;;;;24.73;14.15;;;;;;;-142.18;100.00;63825.25;5094824;28;20411;-65
2021/12/04 08:31:02;;;;;;;23.85;14.02;;;;;;;-142.18;100.00;63825.25;5093995;28;20062;-65
2021/12/04 08:33:30;;;;;;;24.17;13.48;;;;;;;-142.18;100.00;63825.25;5094793;28;20067;-65
2021/12/04 08:35:57;;;;;;;22.17;13.60;;;;;;;-142.18;100.00;63825.25;5059377;28;20076;-66
2021/12/04 08:38:26;;;;;;;20.02;12.43;;;;;;;-142.18;100.00;63825.25;5093989;28;20126;-66
2021/12/04 08:40:53;;;;;;;20.75;12.68;;;;;;;-142.18;100.00;63825.25;5094530;28;20063;-66
2021/12/04 08:43:21;;;;;;;21.33;12.57;;;;;;;-142.18;100.00;63825.25;5093688;28;20080;-66
2021/12/04 08:45:55;;;;;;;20.92;12.43;;;;;;;-142.18;100.00;63825.25;5094080;28;20110;-66
2021/12/04 08:48:22;;;;;;;22.63;12.50;;;;;;;-142.18;100.00;63825.25;5075600;28;20351;-66
2021/12/04 08:50:51;;;;;;;19.90;11.88;;;;;;;-142.18;100.00;63825.25;5092649;28;20061;-66
2021/12/04 08:53:18;;;;;;;19.90;12.43;;;;;;;-142.18;100.00;63825.25;5091970;28;20139;-66
2021/12/04 08:55:47;;;;;;;21.55;12.63;;;;;;;-142.18;100.00;63825.25;5092002;28;20745;-65
2021/12/04 08:58:15;;;;;;;20.67;11.73;;;;;;;-142.18;100.00;63825.25;5092475;28;20411;-65
2021/12/04 09:01:01;;;;;;;19.90;11.82;;;;;;;-142.18;100.00;63825.25;5073827;28;20783;-65
2021/12/04 09:03:34;;;;;;;20.95;12.20;;;;;;;-142.18;100.00;63825.25;5093190;28;20087;-65
2021/12/04 09:06:02;;;;;;;22.15;12.38;;;;;;;-142.18;100.00;63825.25;5093444;28;20126;-65
2021/12/04 09:08:32;;;;;;;20.25;11.80;;;;;;;-142.18;100.00;63825.25;5093311;28;20443;-65
2021/12/04 09:11:05;;;;;;;20.50;11.95;;;;;;;-142.18;100.00;63825.25;5076348;28;20056;-65
2021/12/04 09:13:34;;;;;;;20.58;12.02;;;;;;;-142.18;100.00;63825.25;5075666;28;20060;-66
2021/12/04 09:16:02;;;;;;;19.40;12.00;;;;;;;-142.18;100.00;63825.25;5092827;28;20063;-66
2021/12/04 09:18:28;;;;;;;19.00;11.55;;;;;;;-142.18;100.00;63825.25;5093294;28;20496;-65
2021/12/04 09:20:56;;;;;;;18.70;10.35;;;;;;;-142.18;100.00;63825.25;5075504;28;20056;-66
2021/12/04 09:23:31;;;;;;;15.85;9.93;;;;;;;-142.18;100.00;63825.25;5091836;28;20155;-66
2021/12/04 09:26:01;;;;;;;13.60;9.90;;;;;;;-142.18;100.00;63825.25;5092260;28;20667;-65
2021/12/04 10:04:17;;;;;;;5.78;5.18;;;;;;;-142.18;100.00;63825.25;5088729;28;20056;-73
2021/12/04 10:12:44;;;;;;;10.10;6.90;;;;;;;-142.18;100.00;63825.25;5087772;28;20060;-73
2021/12/04 10:15:34;;;;;;;9.52;6.50;;;;;;;-142.18;100.00;63825.25;5088627;28;20049;-73
2021/12/04 10:24:02;;;;;;;5.93;4.80;;;;;;;-142.18;100.00;63825.25;5073529;28;20068;-74
2021/12/04 10:34:57;;;;;;;4.47;4.00;;;;;;;-142.18;100.00;63825.25;5093538;28;20056;-73
2021/12/04 10:37:27;;;;;;;3.95;3.47;;;;;;;-142.18;100.00;63825.25;5076639;28;20068;-74
2021/12/04 10:40:08;;;;;;;4.35;3.95;;;;;;;-142.18;100.00;63825.25;5098711;28;20102;-74
2021/12/04 10:42:48;;;;;;;4.40;4.00;;;;;;;-142.18;100.00;63825.25;5093399;28;20056;-72
2021/12/04 10:45:18;;;;;;;5.43;4.82;;;;;;;-142.18;100.00;63825.25;5075477;28;20395;-73
2021/12/04 10:47:56;;;;;;;5.25;4.50;;;;;;;-142.18;100.00;63825.25;5093388;28;20060;-72
2021/12/04 10:50:39;;;;;;;5.00;4.50;;;;;;;-142.18;100.00;63825.25;5092356;28;20140;-73
2021/12/04 10:53:12;;;;;;;;;;;;;;;-142.18;100.00;63825.25;5093600;28;20072;-72
2021/12/04 10:59:07;;;;;;;4.85;4.32;;;;;;;-142.18;100.00;63825.25;5094106;28;20082;-73
2021/12/04 11:01:57;;;;;;;5.50;4.30;;;;;;;-142.18;100.00;63825.25;5090377;28;20190;-73
2021/12/04 11:19:12;;;;;;;4.63;4.00;;;;;;;-142.18;100.00;63825.25;5092112;28;20056;-73
2021/12/04 11:28:17;;;;;;;6.25;4.47;;;;;;;-142.18;100.00;63825.25;5048819;28;20440;-73
2021/12/04 11:36:48;;;;;;;7.43;4.53;;;;;;;-142.18;100.00;63825.25;5087885;28;20776;-73
2021/12/04 11:42:09;;;;;;;6.05;4.75;;;;;;;-142.18;100.00;63825.25;5048686;28;20150;-73
2021/12/04 11:47:12;;;;;;;6.72;5.10;;;;;;;-142.18;100.00;63825.25;5094522;28;20052;-73
2021/12/04 11:49:39;;;;;;;7.32;4.47;;;;;;;-142.18;100.00;63825.25;5094610;28;20664;-72
2021/12/04 11:52:21;;;;;;;7.50;4.95;;;;;;;-142.18;100.00;63825.25;5095226;28;20068;-73
2021/12/04 11:54:57;;;;;;;4.95;4.20;;;;;;;-142.18;100.00;63825.25;5076880;28;20742;-72
2021/12/04 11:57:30;;;;;;;5.47;4.20;;;;;;;-142.18;100.00;63825.25;5094148;28;20091;-72
2021/12/04 12:00:08;;;;;;;5.63;4.00;;;;;;;-142.18;100.00;63825.25;5094534;28;20162;-72
2021/12/04 12:02:35;;;;;;;4.95;3.55;;;;;;;-142.18;100.00;63825.25;5076697;28;20316;-72
2021/12/04 12:05:05;;;;;;;5.50;3.95;;;;;;;-142.18;100.00;63825.25;5091340;28;20877;-72
2021/12/04 12:07:32;;;;;;;6.07;4.28;;;;;;;-142.18;100.00;63825.25;5077054;28;20113;-73
2021/12/04 12:10:12;;;;;;;5.47;3.95;;;;;;;-142.18;100.00;63825.25;5078173;28;20138;-73
2021/12/04 12:12:42;;;;;;;5.90;4.47;;;;;;;-142.18;100.00;63825.25;5095697;28;20139;-73
2021/12/04 12:15:41;;;;;;;5.28;4.53;;;;;;;-142.18;100.00;63825.25;5077422;28;20091;-73
2021/12/04 12:18:18;;;;;;;5.03;4.18;;;;;;;-142.18;100.00;63825.25;5073613;28;20110;-72
2021/12/04 12:23:21;;;;;;;6.00;4.72;;;;;;;-142.18;100.00;63825.25;5094162;28;20130;-73
2021/12/04 12:37:18;;;;;;;6.93;4.70;;;;;;;-142.18;100.00;63825.25;5093864;28;20106;-72
2021/12/04 12:39:56;;;;;;;6.47;4.55;;;;;;;-142.18;100.00;63825.25;5092804;28;20056;-73
2021/12/04 12:42:36;;;;;;;6.65;4.68;;;;;;;-142.18;100.00;63825.25;5112461;27;20149;-73
2021/12/04 12:45:21;;;;;;;5.88;4.45;;;;;;;-142.18;100.00;63825.25;5114409;28;20409;-72
2021/12/04 12:48:05;;;;;;;6.55;4.22;;;;;;;-142.18;100.00;63825.25;5097156;28;20071;-72
2021/12/04 12:50:46;;;;;;;5.60;4.28;;;;;;;-142.18;100.00;63825.25;5115112;28;20060;-72
2021/12/04 12:53:24;;;;;;;4.65;3.90;;;;;;;-142.18;100.00;63825.25;5114548;28;20528;-73
2021/12/04 12:56:08;;;;;;;5.50;3.80;;;;;;;-142.18;100.00;63825.25;5114103;28;20060;-72
2021/12/04 12:58:54;;;;;;;6.15;4.35;;;;;;;-142.18;100.00;63825.25;5113865;28;20052;-73
2021/12/04 13:13:43;;;;;;;7.18;4.75;;;;;;;-142.18;100.00;63825.25;5092940;28;20060;-73
2021/12/04 13:16:14;;;;;;;6.78;4.85;;;;;;;-142.18;100.00;63825.25;5093730;28;20060;-72
2021/12/04 13:18:50;;;;;;;6.65;4.78;;;;;;;-142.18;100.00;63825.25;5093114;28;20453;-72
2021/12/04 13:21:16;;;;;;;8.15;5.60;;;;;;;-142.18;100.00;63825.25;5093331;28;20056;-73
2021/12/04 13:23:52;;;;;;;6.95;5.25;;;;;;;-142.18;100.00;63825.25;5075278;28;20084;-72
2021/12/04 13:26:31;;;;;;;7.32;5.35;;;;;;;-142.18;100.00;63825.25;5072707;28;20057;-73
2021/12/04 13:29:00;;;;;;;6.75;4.97;;;;;;;-142.18;100.00;63825.25;5073160;28;20806;-72
2021/12/04 13:31:29;;;;;;;7.38;5.18;;;;;;;-142.18;100.00;63825.25;5072063;28;20064;-73
2021/12/04 13:33:56;;;;;;;10.13;7.55;;;;;;;-142.18;100.00;63825.25;5073192;28;20067;-73
2021/12/04 13:36:32;;;;;;;8.35;6.60;;;;;;;-142.18;100.00;63825.25;5079459;28;20153;-73
2021/12/04 13:39:04;;;;;;;15.57;11.13;;;;;;;-142.18;100.00;63825.25;5075380;28;20083;-73
2021/12/04 13:41:31;;;;;;;16.17;10.55;;;;;;;-142.18;100.00;63825.25;5093601;28;20076;-73
2021/12/04 13:44:02;;;;;;;12.20;9.68;;;;;;;-142.18;100.00;63825.25;5092435;28;20057;-72
2021/12/04 13:46:42;;;;;;;8.88;6.85;;;;;;;-142.18;100.00;63825.25;5075139;28;20095;-72
2021/12/04 13:49:11;;;;;;;9.18;6.10;;;;;;;-142.18;100.00;63825.25;5093239;28;20162;-73
2021/12/04 13:51:40;;;;;;;10.48;7.68;;;;;;;-142.18;100.00;63825.25;5076095;28;20137;-73
2021/12/04 13:54:10;;;;;;;8.43;6.85;;;;;;;-142.18;100.00;63825.25;5074699;28;20087;-73
2021/12/04 13:56:40;;;;;;;8.63;6.75;;;;;;;-142.18;100.00;63825.25;5092836;28;20511;-73
2021/12/04 13:59:14;;;;;;;8.93;7.10;;;;;;;-142.18;100.00;63825.25;5075749;28;20143;-73
2021/12/04 14:01:42;;;;;;;8.30;6.72;;;;;;;-142.18;100.00;63825.25;5074932;28;20064;-73
2021/12/04 14:04:16;;;;;;;8.77;6.90;;;;;;;-142.18;100.00;63825.25;5090958;28;20059;-73
2021/12/04 14:06:54;;;;;;;10.63;8.15;;;;;;;-142.18;100.00;63825.25;5075073;28;20151;-73
2021/12/04 14:09:30;;;;;;;12.30;8.50;;;;;;;-142.18;100.00;63825.25;5075789;28;20072;-73